Travis Air Force Base Fairfield US
ICAO: KSUU
IATA: SUU
Category: Large
Scheduled Services: No

Elevation: 62 ft
TransAlt. 18000 ft.

Airport Communications:
APP:119.9
ATIS:116.4
CLNC DEL:127.55
DEP:119.9
GND:121.8
PMSV METRO:26.92
COMD POST:141.9
PTD:28.557
TWR:120.75
AERO CLUB UNICOM:123.3

KSUU Zoom In..

Runways:

(A) RW 03L length 11001 ft width 150 ft
ILS 108.35 / hdg 32

(B) RW 03R length 10995 ft width 150 ft
---- / hdg 32

(C) RW 21L length 10995 ft width 150 ft
ILS 110.10 / hdg 212

(D) RW 21R length 11001 ft width 150 ft
ILS 108.35 / hdg 212

Location; KSUU
Day. 21 / Time. 23.58 Zulu
* Altimeter: 30.31
* Temperature: 13° c. 55.4°f.
* Wind from: 220° Speed 08 kn.
Dewpoint: 07° c.
Visibility: 10 Statute Miles.
Clouds: Scattered 1000 ft.

KSUU 212358Z AUTO 22008KT 10SM SCT100 13/07 A3031 RMK AO2 SLP271 T01320072 10137 20092 55008 $


Wind From 220°
Speed 08 kn.

jpsM music video
CHECK IT OUT

jpsM - It Moves..

 
jpsmedia.com for Web Design  worldairports.se 2018   terms of use